Pitt Meadows, British Columbia

8:15 PM PDT on May 22, 2015 (GMT -0700)
Pitt Meadows Chez Douglas | | Change Station
CLOSE
Current Station
Personal Weather Station
Location: Pitt Meadows, BRITISH COLUMBIA
Elevation: 66 ft
Nearby Weather Stations

Elev 66 ft 49.22 °N, 122.69 °W | Updated 12 minutes ago

Mostly Cloudy
Mostly Cloudy
64.0 °F
Feels Like 64.0 °F
N
3.1
Wind Variable Wind from SW

Today
High -- | Low -- °F
--% Chance of Precip.
Yesterday
High -- | Low -- °F
Precip. -- in
5:19 AM 8:56 PM
Waxing Crescent, 26% visible
Pressure 30.00 in
Visibility 15.0 miles
Clouds Few 3000 ft
Scattered Clouds 10000 ft
Mostly Cloudy 15000 ft
Mostly Cloudy 22000 ft
Dew Point 55 °F
Humidity 73%
Rainfall 0.00 in
Snow Depth Not available.
UV 0 out of 12
Pollen Not available.
Air Quality Not available.
Flu Activity Not available.
METAR CYXX 230300Z 24009KT 15SM FEW030 SCT100 BKN150 BKN220 16/12 A2999 RMK SC2AC2AC1CI1 SLP157 DENSITY ALT 300FT

More Conditions Fewer Conditions

Pressure 30.00 in
Visibility 15.0 miles
Clouds Few 3000 ft
Scattered Clouds 10000 ft
Mostly Cloudy 15000 ft
Mostly Cloudy 22000 ft
Dew Point 55 °F
Humidity 73%
Rainfall 0.00 in
Snow Depth Not available.
UV 0 out of 12
Pollen Not available.
Air Quality Not available.
Flu Activity Not available.
METAR CYXX 230300Z 24009KT 15SM FEW030 SCT100 BKN150 BKN220 16/12 A2999 RMK SC2AC2AC1CI1 SLP157 DENSITY ALT 300FT

More Conditions Fewer Conditions

10-Day Weather Forecast

Almanac

Astronomy

May. 22, 2015 Rise Set
Actual Time
Civil Twilight
Nautical Twilight
Astronomical Twilight
Moon
Length of Visible Light
Length of Day
Tomorrow will be .
, % of the Moon is Illuminated

Today's Extremes

Country Highs Country Lows

Community

WunderPhotos

Upload Photos

1,823,375 photos uploaded!

WunderBlogs® & News

Nearby

Air Quality

  Air Quality AQ Index Pollutant
Not available.

Snow Depth

Station Depth Elevation

Earthquake Activity

City Distance Mag. Time & Date
Minimum magnitude displayed is 2.5.

Coastal Water Temperatures

Place Temperature

Stations

Nearby Weather Stations

Station Location Temp. Windchill Dew Point Humidity Wind Precip. Elev Updated Type